Current Conditions

Updated: 27-Aug-2014 11:56am  
Summary / Temperature Wind Rain






Feels like: 87°F

1-hour difference
6.3°F 6.3°F warmer than last hour.

24-hour difference
8.2°F8.2°F warmer than yesterday at this time.

  Today Yesterday
High: 89.4°F
11:55am
93.2°F
5:43pm
Low: 63.3°F
7:11am
60.9°F
6:51am
 Wind from SE SE
0.5
Gust:  1 mph
0 Beaufort - Calm

Today: 4 - 11:51am
Month: 12 mph - Aug 13
Rain Today: 0.00 in
Current Rate (/hr): 0.00 in
Max Rate (/hr):
Rain Yesterday: 0.00 in
Storm Rain: 0.00 in
This Month: 0.00 in
Season Total: 0.00 in
Last Rain Event: 112 days ago
Humidity / Barometer Sun / Moon
Humidity: 31 Decreased 4.0% in the last hour.
Dew Point: 54.8°F Increased 2.2°F in the last hour.
Barometer: 29.975 inHg  
Baro Trend: Falling slowly
Sunrise: 6:24am
Sunset: 7:32pm
Moonrise: 8:18am
Moonset: 7:56pm
Sky Conditions UV Index
Sky: Clear
Visibility: 10 miles
Clouds: None
Current: 9.0  Very High 
Wednesday: 8.9  Very High 
Thursday: 9.4  Very High 
Air Quality Fire Danger
PM 2.5 Good
Current: 56  Moderate 

Local Alerts Local Forecast
Local NWS Alerts
Today

Hot

High 98
Tonight

Clear

Low 64
Thu

Very
Hot
High 101
Thu night

Mostly
Clear
Low 65
Fri

Very
Hot
High 100
Fri night

Mostly
Clear
Low 67
Sat

Hot

High 99

Local Radar Local Satellite Neighborhood Cam Sky Cam
Local Radar Local Satellite Neighborhood Cam Sky Cam


Nearby METAR Reports

KPTV - Porterville, California, USA
Distance from station: SSW 4mi, 7km
Updated: Wed, 27-Aug-2014 11:35am PDT
Clear
Clear
 Wind from WSW
Wind: WSW 6 mph , 9 km/h
Temperature: 86°F , 30°C
Dew Point: 50°F , 10°C
Humidity: 29%
Barometer: 30.05 inHg , 1017.6 hPa
Clouds: Clear
Visibility: 10 miles , 16 km
2014/08/27 18:35 KPTV 271835Z AUTO 25005KT 10SM CLR 30/10 A3005 RMK AO1
KVIS - Visalia, California, USA
Distance from station: NW 27mi, 43km
Updated: Wed, 27-Aug-2014 11:35am PDT
Clear
Clear
 Wind from S
Wind: S 5 mph , 7 km/h
Temperature: 84°F , 29°C
Heat Index: 84°F , 29°C
Dew Point: 59°F , 15°C
Humidity: 43%
Barometer: 30.04 inHg , 1017.3 hPa
Clouds: Clear
Visibility: 10 miles , 16 km
2014/08/27 18:35 KVIS 271835Z AUTO 18004KT 10SM CLR 29/15 A3004 RMK AO1

Metar display script from Saratoga-Weather.org



Visitor Map

Locations of visitors to this page